createdAt,value
2018-03-31T00:01:34.506Z,3.00
2018-03-31T00:04:01.544Z,2.80
2018-03-31T00:06:28.569Z,2.93
2018-03-31T00:08:55.587Z,2.77
2018-03-31T00:11:22.636Z,3.97
2018-03-31T00:13:50.427Z,3.20
2018-03-31T00:16:17.466Z,5.03
2018-03-31T00:18:44.498Z,2.77
2018-03-31T00:21:12.329Z,2.90
2018-03-31T00:23:40.865Z,2.90
2018-03-31T00:26:07.878Z,3.57
2018-03-31T00:28:34.911Z,3.07
2018-03-31T00:31:01.954Z,3.57
2018-03-31T00:33:29.341Z,3.97
2018-03-31T00:35:56.376Z,3.47
2018-03-31T00:38:24.174Z,3.80
2018-03-31T00:40:51.199Z,3.30
2018-03-31T00:43:19.029Z,3.60
2018-03-31T00:45:46.057Z,3.07
2018-03-31T00:48:13.094Z,3.77
2018-03-31T00:50:40.124Z,3.60
2018-03-31T00:53:07.912Z,3.50
2018-03-31T00:55:34.953Z,3.93
2018-03-31T00:58:01.976Z,3.33
2018-03-31T01:00:29.025Z,4.63
2018-03-31T01:02:56.822Z,3.90
2018-03-31T01:05:23.842Z,3.90
2018-03-31T01:07:50.876Z,3.80
2018-03-31T01:10:17.898Z,3.63
2018-03-31T01:12:45.018Z,3.67
2018-03-31T01:15:12.051Z,3.90
2018-03-31T01:17:39.088Z,3.63
2018-03-31T01:20:06.128Z,3.50
2018-03-31T01:22:33.180Z,3.83
2018-03-31T01:25:00.208Z,3.80
2018-03-31T01:27:27.251Z,4.10
2018-03-31T01:29:54.277Z,4.37
2018-03-31T01:32:21.308Z,3.90
2018-03-31T01:34:48.392Z,4.03
2018-03-31T01:37:15.438Z,4.23
2018-03-31T01:39:42.500Z,4.13
2018-03-31T01:42:09.554Z,4.20
2018-03-31T01:44:36.596Z,4.13
2018-03-31T01:47:03.620Z,4.17
2018-03-31T01:49:30.656Z,4.37
2018-03-31T01:51:57.687Z,4.80
2018-03-31T01:54:25.499Z,4.53
2018-03-31T01:56:52.552Z,4.57
2018-03-31T01:59:19.576Z,4.60
2018-03-31T02:01:46.674Z,4.67
2018-03-31T02:04:13.708Z,4.57
2018-03-31T02:06:40.760Z,4.43
2018-03-31T02:09:07.794Z,4.40
2018-03-31T02:11:34.851Z,4.90
2018-03-31T02:14:01.911Z,5.03
2018-03-31T02:16:28.959Z,4.47
2018-03-31T02:18:55.986Z,4.83
2018-03-31T02:21:23.088Z,4.53
2018-03-31T02:23:50.112Z,4.80
2018-03-31T02:26:17.935Z,7.03
2018-03-31T02:28:44.967Z,5.00
2018-03-31T02:31:11.998Z,4.80
2018-03-31T02:33:39.797Z,5.13
2018-03-31T02:36:06.841Z,4.97
2018-03-31T02:38:33.900Z,5.00
2018-03-31T02:41:00.932Z,4.60
2018-03-31T02:43:27.967Z,4.90
2018-03-31T02:45:54.995Z,5.13
2018-03-31T02:48:22.779Z,4.80
2018-03-31T02:50:50.594Z,6.87
2018-03-31T02:53:17.631Z,5.77
2018-03-31T02:55:44.667Z,6.17
2018-03-31T02:58:11.696Z,5.27
2018-03-31T03:00:38.780Z,5.50
2018-03-31T03:03:05.839Z,5.77
2018-03-31T03:05:32.888Z,5.37
2018-03-31T03:07:59.902Z,5.27
2018-03-31T03:10:26.951Z,5.43
2018-03-31T03:12:53.985Z,5.10
2018-03-31T03:15:21.010Z,5.27
2018-03-31T03:17:48.042Z,5.70
2018-03-31T03:20:15.851Z,5.20
2018-03-31T03:22:42.899Z,5.60
2018-03-31T03:25:10.711Z,5.93
2018-03-31T03:27:37.742Z,6.07
2018-03-31T03:30:04.782Z,6.10
2018-03-31T03:32:31.814Z,5.60
2018-03-31T03:34:58.843Z,8.20
2018-03-31T03:37:25.867Z,5.37
2018-03-31T03:39:52.916Z,5.37
2018-03-31T03:42:19.954Z,6.07
2018-03-31T03:44:47.032Z,5.63
2018-03-31T03:47:14.050Z,5.50
2018-03-31T03:49:41.079Z,6.00
2018-03-31T03:52:08.099Z,6.10
2018-03-31T03:54:35.955Z,6.43
2018-03-31T03:57:02.984Z,5.80
2018-03-31T03:59:30.016Z,6.13
2018-03-31T04:01:57.040Z,6.13
2018-03-31T04:04:24.084Z,5.77
2018-03-31T04:06:51.107Z,6.70
2018-03-31T04:09:18.139Z,6.00
2018-03-31T04:11:45.930Z,5.87
2018-03-31T04:14:12.984Z,6.47
2018-03-31T04:16:40.016Z,5.97
2018-03-31T04:19:07.136Z,5.47
2018-03-31T04:21:34.164Z,5.87
2018-03-31T04:24:01.186Z,5.63
2018-03-31T04:26:28.211Z,5.80
2018-03-31T04:28:56.046Z,5.63
2018-03-31T04:31:23.123Z,6.10
2018-03-31T04:33:50.152Z,5.93
2018-03-31T04:36:17.180Z,6.50
2018-03-31T04:38:44.216Z,6.53
2018-03-31T04:41:11.245Z,6.30
2018-03-31T04:43:38.300Z,7.80
2018-03-31T04:46:05.347Z,7.17
2018-03-31T04:48:32.486Z,7.20
2018-03-31T04:50:59.528Z,7.07
2018-03-31T04:53:26.580Z,7.27
2018-03-31T04:55:53.620Z,6.90
2018-03-31T04:58:20.640Z,7.43
2018-03-31T05:00:47.676Z,6.70
2018-03-31T05:03:14.719Z,7.33
2018-03-31T05:05:41.772Z,6.87
2018-03-31T05:08:08.788Z,7.30
2018-03-31T05:10:35.803Z,7.40
2018-03-31T05:13:02.903Z,7.90
2018-03-31T05:15:29.942Z,7.30
2018-03-31T05:17:56.989Z,7.60
2018-03-31T05:20:24.070Z,6.77
2018-03-31T05:22:51.119Z,7.43
2018-03-31T05:25:18.150Z,7.20
2018-03-31T05:27:45.171Z,7.73
2018-03-31T05:30:12.215Z,8.03
2018-03-31T05:32:39.287Z,7.90
2018-03-31T05:35:06.327Z,8.80
2018-03-31T05:37:33.359Z,8.23
2018-03-31T05:40:00.390Z,8.07
2018-03-31T05:42:27.444Z,8.53
2018-03-31T05:44:55.255Z,8.27
2018-03-31T05:47:22.318Z,8.43
2018-03-31T05:49:49.396Z,9.23
2018-03-31T05:52:16.429Z,9.60
2018-03-31T05:54:43.500Z,8.70
2018-03-31T05:57:10.552Z,8.27
2018-03-31T05:59:37.575Z,8.30
2018-03-31T06:02:04.619Z,9.40
2018-03-31T06:04:31.643Z,8.87
2018-03-31T06:06:58.673Z,7.93
2018-03-31T06:09:25.712Z,9.60
2018-03-31T06:11:52.751Z,8.90
2018-03-31T06:14:20.281Z,9.35
2018-03-31T06:16:47.312Z,8.57
2018-03-31T06:19:14.383Z,9.00
2018-03-31T06:21:41.482Z,9.10
2018-03-31T06:24:08.533Z,9.03
2018-03-31T06:26:35.583Z,9.27
2018-03-31T06:29:02.634Z,9.80
2018-03-31T06:31:29.680Z,9.13
2018-03-31T06:33:56.711Z,9.30
2018-03-31T06:36:24.507Z,8.97
2018-03-31T06:38:51.556Z,9.37
2018-03-31T06:41:18.596Z,9.97
2018-03-31T06:43:45.626Z,10.63
2018-03-31T06:46:13.436Z,9.33
2018-03-31T06:48:40.475Z,8.20
2018-03-31T06:51:08.271Z,8.40
2018-03-31T06:53:35.317Z,8.47
2018-03-31T06:56:02.351Z,9.27
2018-03-31T06:58:29.408Z,8.90
2018-03-31T07:00:56.488Z,9.97
2018-03-31T07:03:23.522Z,9.10
2018-03-31T07:05:50.560Z,8.97
2018-03-31T07:08:17.590Z,9.13
2018-03-31T07:10:44.627Z,8.87
2018-03-31T07:13:11.671Z,8.13
2018-03-31T07:15:38.771Z,9.13
2018-03-31T07:18:06.580Z,8.60
2018-03-31T07:20:33.596Z,9.27
2018-03-31T07:23:01.398Z,8.40
2018-03-31T07:25:28.443Z,8.77
2018-03-31T07:27:56.243Z,7.77
2018-03-31T07:30:23.265Z,8.97
2018-03-31T07:32:50.292Z,9.07
2018-03-31T07:35:17.335Z,8.70
2018-03-31T07:37:45.134Z,8.47
2018-03-31T07:40:12.176Z,8.20
2018-03-31T07:42:39.229Z,8.80
2018-03-31T07:45:06.272Z,8.70
2018-03-31T07:47:33.329Z,8.50
2018-03-31T07:50:00.346Z,8.70
2018-03-31T07:52:27.382Z,7.80
2018-03-31T07:54:55.212Z,8.70
2018-03-31T07:57:22.265Z,8.17
2018-03-31T07:59:49.315Z,7.90
2018-03-31T08:02:16.343Z,6.90
2018-03-31T08:04:43.382Z,7.53
2018-03-31T08:07:10.407Z,8.00
2018-03-31T08:09:37.453Z,8.30
2018-03-31T08:12:05.279Z,6.80
2018-03-31T08:14:32.320Z,6.97
2018-03-31T08:16:59.351Z,7.73
2018-03-31T08:19:26.380Z,7.80
2018-03-31T08:21:53.415Z,7.60
2018-03-31T08:24:20.467Z,8.47
2018-03-31T08:26:47.487Z,6.20
2018-03-31T08:29:14.515Z,6.77
2018-03-31T08:31:41.543Z,6.53
2018-03-31T08:34:08.564Z,6.63
2018-03-31T08:36:35.591Z,7.67
2018-03-31T08:39:03.394Z,7.03
2018-03-31T08:41:30.419Z,6.17
2018-03-31T08:43:58.208Z,6.20
2018-03-31T08:46:25.276Z,7.33
2018-03-31T08:48:52.425Z,6.93
2018-03-31T08:51:19.477Z,6.20
2018-03-31T08:53:46.525Z,7.37
2018-03-31T08:56:13.559Z,5.63
2018-03-31T08:58:40.670Z,6.17
2018-03-31T09:01:07.727Z,7.07
2018-03-31T09:03:35.511Z,6.27
2018-03-31T09:06:02.536Z,6.23
2018-03-31T09:08:30.345Z,5.03
2018-03-31T09:10:57.374Z,6.13
2018-03-31T09:13:24.428Z,6.80
2018-03-31T09:15:51.448Z,6.33
2018-03-31T09:18:19.264Z,6.30
2018-03-31T09:20:47.047Z,6.43
2018-03-31T09:23:14.096Z,8.33
2018-03-31T09:25:41.136Z,5.77
2018-03-31T09:28:08.181Z,7.00
2018-03-31T09:30:35.213Z,6.43
2018-03-31T09:33:02.351Z,7.13
2018-03-31T09:35:29.311Z,6.50
2018-03-31T09:37:56.348Z,6.27
2018-03-31T09:40:23.380Z,8.80
2018-03-31T09:42:51.341Z,7.10
2018-03-31T09:45:19.146Z,6.70
2018-03-31T09:47:46.200Z,7.73
2018-03-31T09:50:13.288Z,7.20
2018-03-31T09:52:40.323Z,7.47
2018-03-31T09:55:07.356Z,6.30
2018-03-31T09:57:34.380Z,6.70
2018-03-31T10:00:01.412Z,8.00
2018-03-31T10:02:29.208Z,6.60
2018-03-31T10:04:56.231Z,7.17
2018-03-31T10:07:23.273Z,5.70
2018-03-31T10:09:50.305Z,3.77
2018-03-31T10:12:17.348Z,6.10
2018-03-31T10:14:45.928Z,5.43
2018-03-31T10:17:12.988Z,5.37
2018-03-31T10:19:40.809Z,4.00
2018-03-31T10:22:07.835Z,4.60
2018-03-31T10:24:34.870Z,5.23
2018-03-31T10:27:01.915Z,6.87
2018-03-31T10:29:29.735Z,4.73
2018-03-31T10:31:56.764Z,5.33
2018-03-31T10:34:23.802Z,5.73
2018-03-31T10:36:50.831Z,8.10
2018-03-31T10:39:18.741Z,5.40
2018-03-31T10:41:45.846Z,4.83
2018-03-31T10:44:13.721Z,3.97
2018-03-31T10:46:40.760Z,6.03
2018-03-31T10:49:07.844Z,4.20
2018-03-31T10:51:34.876Z,5.57
2018-03-31T10:54:01.916Z,5.93
2018-03-31T10:56:29.061Z,4.10
2018-03-31T10:58:56.182Z,7.43
2018-03-31T11:01:23.195Z,5.37
2018-03-31T11:03:50.224Z,4.60
2018-03-31T11:06:17.275Z,6.57
2018-03-31T11:08:45.071Z,4.73
2018-03-31T11:11:12.117Z,3.70
2018-03-31T11:13:39.144Z,3.97
2018-03-31T11:16:06.183Z,6.53
2018-03-31T11:18:34.005Z,3.20
2018-03-31T11:21:01.033Z,3.73
2018-03-31T11:23:28.055Z,4.07
2018-03-31T11:25:55.075Z,4.33
2018-03-31T11:28:22.156Z,4.73
2018-03-31T11:30:49.212Z,3.77
2018-03-31T11:33:16.246Z,4.10
2018-03-31T11:35:43.323Z,5.07
2018-03-31T11:38:10.367Z,4.57
2018-03-31T11:40:37.408Z,2.73
2018-03-31T11:43:04.443Z,3.53
2018-03-31T11:45:31.476Z,3.60
2018-03-31T11:47:58.500Z,3.93
2018-03-31T11:50:25.551Z,3.43
2018-03-31T11:52:52.613Z,3.20
2018-03-31T11:55:19.652Z,7.10
2018-03-31T11:57:46.719Z,3.20
2018-03-31T12:00:13.767Z,4.17
2018-03-31T12:02:41.566Z,3.33
2018-03-31T12:05:08.591Z,3.33
2018-03-31T12:07:36.407Z,4.27
2018-03-31T12:10:03.484Z,4.73
2018-03-31T12:12:30.527Z,5.67
2018-03-31T12:14:57.579Z,2.80
2018-03-31T12:17:24.627Z,3.87
2018-03-31T12:19:52.211Z,3.50
2018-03-31T12:22:19.302Z,3.20
2018-03-31T12:24:46.354Z,4.90
2018-03-31T12:27:13.434Z,3.13
2018-03-31T12:29:40.492Z,3.93
2018-03-31T12:32:07.547Z,5.37
2018-03-31T12:34:34.583Z,5.47
2018-03-31T12:37:02.139Z,3.63
2018-03-31T12:39:29.188Z,3.13
2018-03-31T12:41:56.233Z,4.30
2018-03-31T12:44:23.259Z,3.27
2018-03-31T12:46:50.281Z,2.10
2018-03-31T12:49:17.328Z,2.70
2018-03-31T12:51:44.367Z,3.57
2018-03-31T12:54:11.423Z,4.40
2018-03-31T12:56:38.463Z,3.47
2018-03-31T12:59:05.544Z,4.83
2018-03-31T13:01:32.693Z,4.90
2018-03-31T13:03:59.715Z,4.27
2018-03-31T13:06:27.512Z,5.40
2018-03-31T13:08:54.535Z,6.23
2018-03-31T13:11:21.567Z,2.53
2018-03-31T13:13:48.610Z,4.13
2018-03-31T13:16:15.672Z,3.20
2018-03-31T13:18:43.476Z,5.20
2018-03-31T13:21:10.547Z,6.13
2018-03-31T13:23:37.566Z,5.40
2018-03-31T13:26:04.616Z,2.60
2018-03-31T13:28:31.771Z,4.43
2018-03-31T13:30:58.820Z,3.47
2018-03-31T13:33:25.852Z,4.13
2018-03-31T13:35:52.875Z,5.17
2018-03-31T13:38:21.602Z,3.07
2018-03-31T13:40:48.694Z,4.33
2018-03-31T13:43:15.727Z,3.83
2018-03-31T13:45:42.808Z,4.00
2018-03-31T13:48:09.860Z,3.57
2018-03-31T13:50:37.731Z,3.50
2018-03-31T13:53:05.536Z,3.30
2018-03-31T13:55:32.652Z,3.70
2018-03-31T13:58:00.452Z,4.83
2018-03-31T14:00:27.478Z,4.43
2018-03-31T14:02:54.495Z,3.93
2018-03-31T14:05:21.547Z,4.63
2018-03-31T14:07:48.595Z,5.73
2018-03-31T14:10:15.657Z,2.83
2018-03-31T14:12:42.735Z,6.60
2018-03-31T14:15:09.772Z,3.90
2018-03-31T14:17:37.561Z,4.60
2018-03-31T14:20:04.579Z,4.47
2018-03-31T14:22:31.595Z,3.07
2018-03-31T14:24:58.623Z,2.70
2018-03-31T14:27:25.755Z,4.17
2018-03-31T14:29:52.771Z,4.87
2018-03-31T14:32:19.800Z,4.80
2018-03-31T14:34:46.831Z,4.13
2018-03-31T14:37:13.879Z,4.17
2018-03-31T14:39:40.948Z,4.77
2018-03-31T14:42:07.988Z,4.03
2018-03-31T14:44:35.025Z,4.20
2018-03-31T14:47:02.129Z,3.73
2018-03-31T14:49:29.105Z,6.13
2018-03-31T14:51:56.138Z,6.23
2018-03-31T14:54:23.203Z,5.53
2018-03-31T14:56:50.244Z,5.03
2018-03-31T14:59:17.294Z,5.63
2018-03-31T15:01:44.340Z,3.53
2018-03-31T15:04:11.403Z,2.87
2018-03-31T15:06:38.434Z,4.03
2018-03-31T15:09:05.460Z,4.37
2018-03-31T15:11:32.515Z,4.53
2018-03-31T15:14:00.309Z,8.00
2018-03-31T15:16:27.337Z,3.37
2018-03-31T15:18:54.371Z,3.80
2018-03-31T15:21:21.418Z,4.77
2018-03-31T15:23:49.768Z,3.47
2018-03-31T15:26:16.837Z,4.23
2018-03-31T15:28:44.755Z,4.27
2018-03-31T15:31:11.779Z,3.17
2018-03-31T15:33:39.571Z,3.87
2018-03-31T15:36:06.618Z,5.00
2018-03-31T15:38:33.659Z,5.03
2018-03-31T15:41:00.699Z,5.90
2018-03-31T15:43:27.743Z,3.70
2018-03-31T15:45:54.804Z,4.07
2018-03-31T15:48:21.840Z,5.57
2018-03-31T15:50:48.872Z,4.03
2018-03-31T15:53:15.910Z,3.23
2018-03-31T15:55:43.703Z,8.73
2018-03-31T15:58:10.789Z,7.40
2018-03-31T16:00:37.843Z,4.13
2018-03-31T16:03:04.964Z,3.67
2018-03-31T16:05:32.016Z,3.93
2018-03-31T16:07:59.030Z,6.27
2018-03-31T16:10:26.826Z,4.37
2018-03-31T16:12:53.865Z,6.87
2018-03-31T16:15:20.918Z,5.47
2018-03-31T16:17:47.945Z,5.47
2018-03-31T16:20:15.733Z,4.33
2018-03-31T16:22:43.576Z,3.03
2018-03-31T16:25:10.627Z,4.87
2018-03-31T16:27:38.424Z,5.23
2018-03-31T16:30:05.455Z,5.77
2018-03-31T16:32:32.508Z,8.10
2018-03-31T16:34:59.544Z,4.03
2018-03-31T16:37:27.342Z,3.83
2018-03-31T16:39:54.400Z,4.57
2018-03-31T16:42:21.439Z,4.60
2018-03-31T16:44:48.514Z,4.67
2018-03-31T16:47:15.600Z,5.00
2018-03-31T16:49:42.700Z,3.50
2018-03-31T16:52:09.734Z,1.90
2018-03-31T16:54:36.814Z,3.23
2018-03-31T16:57:03.884Z,2.00
2018-03-31T16:59:30.969Z,1.63
2018-03-31T17:01:58.008Z,3.83
2018-03-31T17:04:25.834Z,3.77
2018-03-31T17:06:52.885Z,3.43
2018-03-31T17:09:19.939Z,2.70
2018-03-31T17:11:46.988Z,2.73
2018-03-31T17:14:14.028Z,3.57
2018-03-31T17:16:41.167Z,4.63
2018-03-31T17:19:08.924Z,3.77
2018-03-31T17:21:35.996Z,2.60
2018-03-31T17:24:03.022Z,2.43
2018-03-31T17:26:30.047Z,6.70
2018-03-31T17:28:57.073Z,3.53
2018-03-31T17:31:24.143Z,1.90
2018-03-31T17:33:51.236Z,2.77
2018-03-31T17:36:18.263Z,2.17
2018-03-31T17:38:45.496Z,3.10
2018-03-31T17:41:12.554Z,6.43
2018-03-31T17:43:39.583Z,8.20
2018-03-31T17:46:06.607Z,2.87
2018-03-31T17:48:33.642Z,4.33
2018-03-31T17:51:00.731Z,6.30
2018-03-31T17:53:27.767Z,5.07
2018-03-31T17:55:55.558Z,6.33
2018-03-31T17:58:22.588Z,9.33
2018-03-31T18:00:49.616Z,9.97
2018-03-31T18:03:16.673Z,2.53
2018-03-31T18:05:44.478Z,9.80
2018-03-31T18:08:11.527Z,8.33
2018-03-31T18:10:38.580Z,2.50
2018-03-31T18:13:05.683Z,4.50
2018-03-31T18:15:32.804Z,7.07
2018-03-31T18:17:59.851Z,5.23
2018-03-31T18:20:26.913Z,3.27
2018-03-31T18:22:53.968Z,6.20
2018-03-31T18:25:21.023Z,3.00
2018-03-31T18:27:48.089Z,3.07
2018-03-31T18:30:15.177Z,3.13
2018-03-31T18:32:42.208Z,2.47
2018-03-31T18:35:09.263Z,2.40
2018-03-31T18:37:36.313Z,4.53
2018-03-31T18:40:03.336Z,2.53
2018-03-31T18:42:30.384Z,2.70
2018-03-31T18:44:57.425Z,3.57
2018-03-31T18:47:24.464Z,4.13
2018-03-31T18:49:51.528Z,5.43
2018-03-31T18:52:18.570Z,2.57
2018-03-31T18:54:45.595Z,3.73
2018-03-31T18:57:12.619Z,4.20
2018-03-31T18:59:39.643Z,14.83
2018-03-31T19:02:07.435Z,13.03
2018-03-31T19:04:35.323Z,6.43
2018-03-31T19:07:02.359Z,9.03
2018-03-31T19:09:29.403Z,4.47
2018-03-31T19:11:56.427Z,5.90
2018-03-31T19:14:23.532Z,3.80
2018-03-31T19:16:56.109Z,4.60
2018-03-31T19:19:23.144Z,4.47
2018-03-31T19:21:50.949Z,4.53
2018-03-31T19:24:18.508Z,4.13
2018-03-31T19:26:45.582Z,4.30
2018-03-31T19:29:12.618Z,4.63
2018-03-31T19:31:40.413Z,4.73
2018-03-31T19:34:07.503Z,3.80
2018-03-31T19:36:34.499Z,3.63
2018-03-31T19:39:01.519Z,4.07
2018-03-31T19:41:29.332Z,4.10
2018-03-31T19:43:56.409Z,4.07
2018-03-31T19:46:23.421Z,3.73
2018-03-31T19:48:50.458Z,4.30
2018-03-31T19:51:17.483Z,4.50
2018-03-31T19:53:45.376Z,4.90
2018-03-31T19:56:12.372Z,4.30
2018-03-31T19:58:39.447Z,4.73
2018-03-31T20:01:06.512Z,4.07
2018-03-31T20:03:34.312Z,5.40
2018-03-31T20:06:01.347Z,5.70
2018-03-31T20:08:28.368Z,5.87
2018-03-31T20:10:55.409Z,4.93
2018-03-31T20:13:23.232Z,5.23
2018-03-31T20:15:50.269Z,5.03
2018-03-31T20:18:18.092Z,4.83
2018-03-31T20:20:45.894Z,6.00
2018-03-31T20:23:12.908Z,5.23
2018-03-31T20:25:39.954Z,5.70
2018-03-31T20:28:06.983Z,5.53
2018-03-31T20:30:34.019Z,5.73
2018-03-31T20:33:01.048Z,6.03
2018-03-31T20:35:28.080Z,6.10
2018-03-31T20:37:55.111Z,6.23
2018-03-31T20:40:22.141Z,6.50
2018-03-31T20:42:49.165Z,6.53
2018-03-31T20:45:16.213Z,6.47
2018-03-31T20:47:43.249Z,7.03
2018-03-31T20:50:10.277Z,7.07
2018-03-31T20:52:37.331Z,7.43
2018-03-31T20:55:04.362Z,6.93
2018-03-31T20:57:32.211Z,7.53
2018-03-31T20:59:59.245Z,8.10
2018-03-31T21:02:27.058Z,8.07
2018-03-31T21:04:54.092Z,8.27
2018-03-31T21:07:21.126Z,8.97
2018-03-31T21:09:48.181Z,8.67
2018-03-31T21:12:15.978Z,8.67
2018-03-31T21:14:43.017Z,9.00
2018-03-31T21:17:10.044Z,8.93
2018-03-31T21:19:37.836Z,9.13
2018-03-31T21:22:05.635Z,8.87
2018-03-31T21:24:32.665Z,8.83
2018-03-31T21:26:59.703Z,9.37
2018-03-31T21:29:26.728Z,9.77
2018-03-31T21:31:53.748Z,9.23
2018-03-31T21:34:20.799Z,10.07
2018-03-31T21:36:47.864Z,9.90
2018-03-31T21:39:15.712Z,10.30
2018-03-31T21:41:42.760Z,9.73
2018-03-31T21:44:09.796Z,10.77
2018-03-31T21:46:36.828Z,10.13
2018-03-31T21:49:03.843Z,10.60
2018-03-31T21:51:31.664Z,10.33
2018-03-31T21:53:58.704Z,10.33
2018-03-31T21:56:25.742Z,10.10
2018-03-31T21:58:52.798Z,10.80
2018-03-31T22:01:19.846Z,10.73
2018-03-31T22:03:46.995Z,10.37
2018-03-31T22:06:14.073Z,10.07
2018-03-31T22:08:42.634Z,10.47
2018-03-31T22:11:09.659Z,10.20
2018-03-31T22:13:42.274Z,10.80
2018-03-31T22:16:09.432Z,10.40
2018-03-31T22:18:36.475Z,10.23
2018-03-31T22:21:03.535Z,10.37
2018-03-31T22:23:30.639Z,10.63
2018-03-31T22:25:57.685Z,10.20
2018-03-31T22:28:24.721Z,11.03
2018-03-31T22:30:51.787Z,10.00
2018-03-31T22:33:18.836Z,9.87
2018-03-31T22:35:45.878Z,10.00
2018-03-31T22:38:12.929Z,10.03
2018-03-31T22:40:39.980Z,10.33
2018-03-31T22:43:07.018Z,10.67
2018-03-31T22:45:34.050Z,11.17
2018-03-31T22:48:01.841Z,9.83
2018-03-31T22:50:28.868Z,9.80
2018-03-31T22:52:55.920Z,10.20
2018-03-31T22:55:23.721Z,10.00
2018-03-31T22:57:50.767Z,10.20
2018-03-31T23:00:17.843Z,9.80
2018-03-31T23:02:44.870Z,10.20
2018-03-31T23:05:11.899Z,10.53
2018-03-31T23:07:38.918Z,10.37
2018-03-31T23:10:05.983Z,10.60
2018-03-31T23:12:33.780Z,10.57
2018-03-31T23:15:00.874Z,10.40
2018-03-31T23:17:27.948Z,10.00
2018-03-31T23:19:54.985Z,10.67
2018-03-31T23:22:22.019Z,9.87
2018-03-31T23:24:49.123Z,10.30
2018-03-31T23:27:16.149Z,9.93
2018-03-31T23:29:43.175Z,10.67
2018-03-31T23:32:11.347Z,10.97
2018-03-31T23:34:38.382Z,10.90
2018-03-31T23:37:05.423Z,11.23
2018-03-31T23:39:32.457Z,11.87
2018-03-31T23:41:59.496Z,12.17
2018-03-31T23:44:26.538Z,12.20
2018-03-31T23:46:53.579Z,11.83
2018-03-31T23:49:20.646Z,11.83
2018-03-31T23:51:47.708Z,11.50
2018-03-31T23:54:14.787Z,10.97
2018-03-31T23:56:41.837Z,11.70
2018-03-31T23:59:08.947Z,11.80
